| time (UTC) | temp C | wind direction | speed KPH | gust KPH | rain 1hr cm | rain 24hr cm | rain mn cm | humidity % | barometer mb |
| 20260502230038 | 16 | 180 | 8.0 | 16.1 | 0.00 | 0.00 | 0.00 | 27 | |
| 20260502225036 | 16 | 180 | 8.0 | 20.9 | 0.00 | 0.00 | 0.00 | 28 | |
| 20260502224035 | 17 | 180 | 8.0 | 14.5 | 0.00 | 0.00 | 0.00 | 24 | |
| 20260502223035 | 16 | 180 | 1.6 | 22.5 | 0.00 | 0.00 | 0.00 | 25 | |
| 20260502222034 | 16 | 180 | 1.6 | 14.5 | 0.00 | 0.00 | 0.00 | 26 | |
| 20260502221032 | 16 | 180 | 4.8 | 12.9 | 0.00 | 0.00 | 0.00 | 27 | |
| 20260502220032 | 16 | 180 | 8.0 | 14.5 | 0.00 | 0.00 | 0.00 | 28 | |
| 20260502214028 | 16 | 180 | 12.9 | 14.5 | 0.00 | 0.00 | 0.00 | 26 | |
| 20260502213027 | 16 | 180 | 8.0 | 9.7 | 0.00 | 0.00 | 0.00 | 25 | |
| 20260502212025 | 16 | 180 | 1.6 | 9.7 | 0.00 | 0.00 | 0.00 | 24 | |
| 20260502211024 | 16 | 180 | 0.0 | 9.7 | 0.00 | 0.00 | 0.00 | 25 | |
| 20260502205022 | 15 | 180 | 9.7 | 27.4 | 0.00 | 0.00 | 0.00 | 28 | |
| 20260502203020 | 15 | 180 | 16.1 | 25.7 | 0.00 | 0.00 | 0.00 | 25 | |
| 20260502202020 | 15 | 180 | 14.5 | 17.7 | 0.00 | 0.00 | 0.00 | 26 | |
| 20260502201019 | 15 | 180 | 14.5 | 16.1 | 0.00 | 0.00 | 0.00 | 24 | |
| 20260502200018 | 15 | 180 | 16.1 | 20.9 | 0.00 | 0.00 | 0.00 | 24 | |
| 20260502195016 | 16 | 180 | 14.5 | 19.3 | 0.00 | 0.00 | 0.00 | 22 | |
| 20260502194015 | 16 | 180 | 9.7 | 19.3 | 0.00 | 0.00 | 0.00 | 20 | |
| 20260502191012 | 15 | 180 | 8.0 | 22.5 | 0.00 | 0.00 | 0.00 | 24 | |
| 20260502185011 | 16 | 180 | 11.3 | 12.9 | 0.00 | 0.00 | 0.00 | 21 | |
| 20260502184009 | 16 | 180 | 1.6 | 12.9 | 0.00 | 0.00 | 0.00 | 19 | |
| 20260502183009 | 16 | 180 | 4.8 | 9.7 | 0.00 | 0.00 | 0.00 | 19 | |
| 20260502182007 | 16 | 180 | 3.2 | 11.3 | 0.00 | 0.00 | 0.00 | 22 | |
| 20260502181007 | 16 | 180 | 8.0 | 16.1 | 0.00 | 0.00 | 0.00 | 19 | |
| 20260502163958 | 13 | 180 | 9.7 | 14.5 | 0.00 | 0.00 | 0.00 | 23 | |
| 20260502162957 | 13 | 180 | 4.8 | 11.3 | 0.00 | 0.00 | 0.00 | 22 | |
| 20260502161956 | 12 | 180 | 9.7 | 9.7 | 0.00 | 0.00 | 0.00 | 24 | |
| 20260502160955 | 11 | 180 | 4.8 | 16.1 | 0.00 | 0.00 | 0.00 | 24 | |
| 20260502151950 | 11 | 180 | 12.9 | 16.1 | 0.00 | 0.00 | 0.00 | 28 | |
| 20260502122933 | 1 | 180 | 0.0 | 0.0 | 0.00 | 0.00 | 0.00 | 64 | |
| 20260502121931 | 1 | 180 | 0.0 | 0.0 | 0.00 | 0.00 | 0.00 | 77 | |
| 20260502120930 | 0 | 180 | 0.0 | 0.0 | 0.00 | 0.00 | 0.00 | 79 | |
| 20260502115929 | 0 | 180 | 0.0 | 0.0 | 0.00 | 0.00 | 0.00 | 82 | |
| 20260502114928 | -1 | 180 | 0.0 | 0.0 | 0.00 | 0.00 | 0.00 | 82 | |
| 20260502113927 | -1 | 180 | 0.0 | 0.0 | 0.00 | 0.00 | 0.00 | 81 | |
| 20260502112926 | -1 | 180 | 0.0 | 0.0 | 0.00 | 0.00 | 0.00 | 82 | |
| 20260502112037 | -2 | 180 | 0.0 | 0.0 | 0.00 | 0.00 | 0.00 | 82 | |
| 20260502111955 | -2 | 180 | 0.0 | 0.0 | 0.00 | 0.00 | 0.00 | 82 | |
| 20260502111925 | -2 | 180 | 0.0 | 0.0 | 0.00 | 0.00 | 0.00 | 82 | |
| 20260502105923 | -2 | 180 | 0.0 | 0.0 | 0.00 | 0.00 | 0.00 | 83 | |
| 20260502104959 | -2 | 180 | 0.0 | 0.0 | 0.00 | 0.00 | 0.00 | 82 | |
| 20260502104922 | -2 | 180 | 0.0 | 0.0 | 0.00 | 0.00 | 0.00 | 82 | |
| 20260502103922 | -2 | 180 | 0.0 | 0.0 | 0.00 | 0.00 | 0.00 | 80 | |
| 20260502102012 | -2 | 180 | 0.0 | 0.0 | 0.00 | 0.00 | 0.00 | 79 | |
| 20260502101919 | -2 | 180 | 0.0 | 0.0 | 0.00 | 0.00 | 0.00 | 79 | |
| 20260502070854 | -2 | 180 | 0.0 | 0.0 | 0.00 | 0.00 | 0.00 | 72 | |
| 20260502065853 | -2 | 180 | 0.0 | 0.0 | 0.00 | 0.00 | 0.00 | 71 | |
| 20260502064852 | -2 | 180 | 0.0 | 0.0 | 0.00 | 0.00 | 0.00 | 70 | |
| 20260502063851 | -1 | 180 | 0.0 | 0.0 | 0.00 | 0.00 | 0.00 | 69 | |
| 20260502062851 | -1 | 180 | 0.0 | 0.0 | 0.00 | 0.00 | 0.00 | 69 | |
| 20260502061850 | -1 | 180 | 0.0 | 0.0 | 0.00 | 0.00 | 0.00 | 70 | |
| 20260502055848 | -1 | 180 | 0.0 | 0.0 | 0.00 | 0.00 | 0.00 | 67 | |
| 20260502054847 | -1 | 180 | 0.0 | 0.0 | 0.00 | 0.00 | 0.00 | 65 | |
| 20260502053846 | -1 | 180 | 0.0 | 0.0 | 0.00 | 0.00 | 0.00 | 65 | |
| 20260502052844 | 0 | 180 | 0.0 | 0.0 | 0.00 | 0.00 | 0.00 | 64 | |
| 20260502051844 | 0 | 180 | 0.0 | 0.0 | 0.00 | 0.00 | 0.00 | 63 | |
| 20260502050842 | 0 | 180 | 0.0 | 0.0 | 0.00 | 0.00 | 0.00 | 63 | |
| 20260502045842 | 0 | 180 | 0.0 | 0.0 | 0.00 | 0.00 | 0.00 | 62 | |
| 20260502044840 | 0 | 180 | 0.0 | 0.0 | 0.00 | 0.00 | 0.00 | 62 | |
| 20260502043839 | 0 | 180 | 0.0 | 0.0 | 0.00 | 0.00 | 0.00 | 60 | |
| 20260502042838 | 0 | 180 | 0.0 | 0.0 | 0.00 | 0.00 | 0.00 | 59 | |
| 20260502041838 | 0 | 180 | 0.0 | 0.0 | 0.00 | 0.00 | 0.00 | 58 | |
| 20260502040837 | 0 | 180 | 0.0 | 0.0 | 0.00 | 0.00 | 0.00 | 56 | |
| 20260502035835 | 1 | 180 | 0.0 | 0.0 | 0.00 | 0.00 | 0.00 | 55 | |
| 20260502034834 | 1 | 180 | 0.0 | 0.0 | 0.00 | 0.00 | 0.00 | 53 | |
| 20260502033833 | 1 | 180 | 0.0 | 0.0 | 0.00 | 0.00 | 0.00 | 52 | |
| 20260502032832 | 1 | 180 | 0.0 | 0.0 | 0.00 | 0.00 | 0.00 | 51 | |
| 20260502031831 | 2 | 180 | 0.0 | 0.0 | 0.00 | 0.00 | 0.00 | 50 | |
| 20260502030830 | 2 | 180 | 0.0 | 0.0 | 0.00 | 0.00 | 0.00 | 49 | |
| 20260502025829 | 2 | 180 | 0.0 | 0.0 | 0.00 | 0.00 | 0.00 | 48 | |
| 20260502024828 | 3 | 180 | 0.0 | 0.0 | 0.00 | 0.00 | 0.00 | 47 | |
| 20260502023828 | 3 | 180 | 0.0 | 0.0 | 0.00 | 0.00 | 0.00 | 44 | |
| 20260502022826 | 3 | 180 | 0.0 | 0.0 | 0.00 | 0.00 | 0.00 | 44 | |
| 20260502020824 | 5 | 180 | 0.0 | 0.0 | 0.00 | 0.00 | 0.00 | 42 | |
| 20260502015824 | 5 | 180 | 0.0 | 0.0 | 0.00 | 0.00 | 0.00 | 39 | |
| 20260502014822 | 6 | 180 | 0.0 | 0.0 | 0.00 | 0.00 | 0.00 | 38 | |
| 20260502013821 | 6 | 180 | 0.0 | 0.0 | 0.00 | 0.00 | 0.00 | 35 | |
| 20260502012820 | 7 | 180 | 0.0 | 0.0 | 0.00 | 0.00 | 0.00 | 34 | |
| 20260502010816 | 9 | 180 | 0.0 | 4.8 | 0.00 | 0.00 | 0.00 | 26 | |
| 20260502005815 | 11 | 180 | 0.0 | 0.0 | 0.00 | 0.00 | 0.00 | 21 | |
| 20260502004814 | 11 | 180 | 0.0 | 6.4 | 0.00 | 0.00 | 0.00 | 21 | |
| 20260502003814 | 11 | 180 | 0.0 | 6.4 | 0.00 | 0.00 | 0.00 | 21 | |
| 20260502002813 | 12 | 180 | 0.0 | 6.4 | 0.00 | 0.00 | 0.00 | 19 | |
| 20260502001812 | 11 | 180 | 8.0 | 14.5 | 0.00 | 0.00 | 0.00 | 18 | |
| 20260502000811 | 11 | 180 | 0.0 | 9.7 | 0.00 | 0.00 | 0.00 | 19 | |
| 20260501235810 | 11 | 180 | 9.7 | 16.1 | 0.00 | 0.00 | 0.00 | 22 | |
| 20260501234808 | 11 | 180 | 3.2 | 11.3 | 0.00 | 0.00 | 0.00 | 19 | |
| 20260501233807 | 11 | 180 | 6.4 | 14.5 | 0.00 | 0.00 | 0.00 | 20 | |
| 20260501232807 | 11 | 180 | 6.4 | 19.3 | 0.00 | 0.00 | 0.00 | 23 | |
| 20260501231805 | 10 | 180 | 4.8 | 9.7 | 0.00 | 0.00 | 0.00 | 20 |